createdAt,value
2022-08-15T00:02:34.849Z,99625.14
2022-08-15T00:05:06.057Z,99641.91
2022-08-15T00:06:38.029Z,99631.77
2022-08-15T00:08:57.701Z,99630.91
2022-08-15T00:11:28.498Z,99626.37
2022-08-15T00:14:14.164Z,99624.30
2022-08-15T00:16:42.550Z,99629.58
2022-08-15T00:17:55.276Z,99629.78
2022-08-15T00:20:33.454Z,99633.34
2022-08-15T00:22:55.906Z,99630.80
2022-08-15T00:26:55.160Z,99630.16
2022-08-15T00:28:04.187Z,99633.81
2022-08-15T00:29:14.622Z,99633.09
2022-08-15T00:31:42.770Z,99641.17
2022-08-15T00:34:39.381Z,99622.24
2022-08-15T00:38:28.190Z,99632.03
2022-08-15T00:39:39.110Z,99639.28
2022-08-15T00:41:19.956Z,99639.48
2022-08-15T00:43:48.846Z,99626.85
2022-08-15T00:46:21.959Z,99628.94
2022-08-15T00:48:58.781Z,99632.11
2022-08-15T00:51:50.534Z,99619.33
2022-08-15T00:54:55.699Z,99616.10
2022-08-15T00:57:03.203Z,99624.03
2022-08-15T00:58:33.604Z,99621.56
2022-08-15T01:00:49.030Z,99619.32
2022-08-15T01:06:14.167Z,99625.06
2022-08-15T01:07:24.183Z,99618.09
2022-08-15T01:08:39.768Z,99627.12
2022-08-15T01:11:09.909Z,99616.87
2022-08-15T01:14:03.654Z,99605.77
2022-08-15T01:17:38.413Z,99604.91
2022-08-15T01:18:52.834Z,99608.66
2022-08-15T01:20:05.563Z,99610.63
2022-08-15T01:23:13.361Z,99610.08
2022-08-15T01:26:41.149Z,99594.92
2022-08-15T01:27:20.774Z,99607.44
2022-08-15T01:28:38.485Z,99605.65
2022-08-15T01:29:52.099Z,99601.89
2022-08-15T01:32:26.421Z,99591.91
2022-08-15T01:35:04.086Z,99611.13
2022-08-15T01:37:57.849Z,99596.98
2022-08-15T01:41:55.934Z,99594.83
2022-08-15T01:43:08.671Z,99614.59
2022-08-15T01:44:25.462Z,99602.91
2022-08-15T01:45:36.169Z,99602.08
2022-08-15T01:48:26.484Z,99593.61
2022-08-15T01:50:58.955Z,99580.02
2022-08-15T01:53:37.841Z,99589.81
2022-08-15T01:57:43.583Z,99587.09
2022-08-15T01:58:57.379Z,99592.94
2022-08-15T02:00:18.141Z,99593.12
2022-08-15T02:02:46.860Z,99582.39
2022-08-15T02:05:11.973Z,99580.20
2022-08-15T02:09:17.749Z,99573.23
2022-08-15T02:11:58.449Z,99583.03
2022-08-15T02:14:37.675Z,99580.11
2022-08-15T02:16:58.246Z,99571.08
2022-08-15T02:19:26.462Z,99575.32
2022-08-15T02:20:39.384Z,99576.34
2022-08-15T02:23:04.981Z,99560.44
2022-08-15T02:24:20.411Z,99566.09
2022-08-15T02:25:37.065Z,99576.00
2022-08-15T02:26:42.471Z,99568.83
2022-08-15T02:27:53.969Z,99565.13
2022-08-15T02:29:06.755Z,99568.54
2022-08-15T02:30:19.665Z,99571.84
2022-08-15T02:31:34.624Z,99578.34
2022-08-15T02:32:47.590Z,99565.61
2022-08-15T02:35:18.108Z,99565.52
2022-08-15T02:37:57.931Z,99570.44
2022-08-15T02:41:54.650Z,99571.75
2022-08-15T02:43:10.283Z,99565.52
2022-08-15T02:44:23.237Z,99570.05
2022-08-15T02:47:08.490Z,99565.70
2022-08-15T02:49:35.545Z,99562.00
2022-08-15T02:50:48.035Z,99571.75
2022-08-15T02:51:59.315Z,99557.95
2022-08-15T02:54:59.343Z,99560.23
2022-08-15T02:57:22.449Z,99562.29
2022-08-15T02:59:47.457Z,99557.20
2022-08-15T03:02:30.785Z,99554.39
2022-08-15T03:05:03.931Z,99561.95
2022-08-15T03:06:31.299Z,99573.81
2022-08-15T03:07:31.091Z,99572.30
2022-08-15T03:08:45.132Z,99574.96
2022-08-15T03:11:10.864Z,99583.98
2022-08-15T03:13:41.569Z,99571.08
2022-08-15T03:17:36.294Z,99569.08
2022-08-15T03:20:09.057Z,99578.05
2022-08-15T03:22:51.605Z,99576.83
2022-08-15T03:24:06.030Z,99566.83
2022-08-15T03:26:47.151Z,99571.89
2022-08-15T03:27:47.619Z,99574.92
2022-08-15T03:29:04.208Z,99577.27
2022-08-15T03:31:31.059Z,99562.46
2022-08-15T03:34:09.838Z,99571.19
2022-08-15T03:35:23.941Z,99573.00
2022-08-15T03:38:10.316Z,99562.07
2022-08-15T03:39:21.455Z,99578.47
2022-08-15T03:40:31.998Z,99567.54
2022-08-15T03:41:44.476Z,99574.31
2022-08-15T03:44:26.112Z,99563.89
2022-08-15T03:46:46.103Z,99559.34
2022-08-15T03:50:23.293Z,99557.50
2022-08-15T03:51:52.377Z,99559.53
2022-08-15T03:54:25.205Z,99563.97
2022-08-15T03:55:34.925Z,99565.59
2022-08-15T03:56:48.853Z,99564.83
2022-08-15T03:58:04.943Z,99569.65
2022-08-15T04:00:35.250Z,99573.20
2022-08-15T04:03:06.034Z,99552.03
2022-08-15T04:07:01.536Z,99565.02
2022-08-15T04:09:31.720Z,99564.38
2022-08-15T04:13:27.018Z,99559.47
2022-08-15T04:14:39.047Z,99564.84
2022-08-15T04:16:06.452Z,99557.13
2022-08-15T04:18:43.650Z,99560.67
2022-08-15T04:19:46.346Z,99569.75
2022-08-15T04:20:46.416Z,99564.67
2022-08-15T04:22:06.617Z,99564.19
2022-08-15T04:23:16.212Z,99564.83
2022-08-15T04:25:54.382Z,99560.17
2022-08-15T04:27:00.909Z,99560.56
2022-08-15T04:29:30.390Z,99554.78
2022-08-15T04:31:58.610Z,99556.48
2022-08-15T04:34:47.795Z,99556.32
2022-08-15T04:37:14.376Z,99548.98
2022-08-15T04:38:27.278Z,99554.30
2022-08-15T04:39:37.747Z,99548.08
2022-08-15T04:41:19.370Z,99550.34
2022-08-15T04:42:06.827Z,99562.39
2022-08-15T04:44:38.714Z,99543.86
2022-08-15T04:45:48.824Z,99545.86
2022-08-15T04:48:19.705Z,99540.53
2022-08-15T04:50:49.694Z,99541.23
2022-08-15T04:54:59.872Z,99545.89
2022-08-15T04:57:34.861Z,99551.36
2022-08-15T05:02:04.093Z,99555.88
2022-08-15T05:04:25.861Z,99549.98
2022-08-15T05:05:39.016Z,99553.21
2022-08-15T05:08:11.885Z,99551.28
2022-08-15T05:09:19.289Z,99550.13
2022-08-15T05:10:33.865Z,99548.06
2022-08-15T05:12:00.628Z,99553.19
2022-08-15T05:14:36.232Z,99542.11
2022-08-15T05:19:37.285Z,99545.89
2022-08-15T05:22:04.182Z,99547.89
2022-08-15T05:23:18.633Z,99552.70
2022-08-15T05:26:53.687Z,99542.03
2022-08-15T05:27:20.557Z,99553.98
2022-08-15T05:28:32.160Z,99553.98
2022-08-15T05:29:44.552Z,99542.58
2022-08-15T05:30:57.806Z,99557.05
2022-08-15T05:32:07.538Z,99550.13
2022-08-15T05:34:43.131Z,99548.78
2022-08-15T05:37:11.518Z,99547.22
2022-08-15T05:39:52.369Z,99542.73
2022-08-15T05:41:37.967Z,99558.96
2022-08-15T05:44:38.323Z,99549.63
2022-08-15T05:47:15.349Z,99541.95
2022-08-15T05:51:42.720Z,99531.19
2022-08-15T05:54:19.361Z,99540.41
2022-08-15T05:57:01.613Z,99538.80
2022-08-15T05:58:49.379Z,99533.94
2022-08-15T06:01:36.009Z,99528.59
2022-08-15T06:04:29.864Z,99538.31
2022-08-15T06:05:35.699Z,99531.38
2022-08-15T06:06:49.152Z,99533.06
2022-08-15T06:08:09.184Z,99542.78
2022-08-15T06:12:26.647Z,99532.98
2022-08-15T06:16:40.858Z,99547.30
2022-08-15T06:17:47.014Z,99530.84
2022-08-15T06:20:30.468Z,99543.37
2022-08-15T06:23:05.614Z,99524.73
2022-08-15T06:26:18.728Z,99524.38
2022-08-15T06:27:49.495Z,99538.05
2022-08-15T06:30:24.601Z,99521.58
2022-08-15T06:31:54.707Z,99536.53
2022-08-15T06:33:17.073Z,99532.53
2022-08-15T06:40:31.180Z,99539.73
2022-08-15T06:43:02.491Z,99530.05
2022-08-15T06:46:40.003Z,99546.47
2022-08-15T06:49:05.869Z,99538.83
2022-08-15T06:50:22.918Z,99537.00
2022-08-15T06:51:44.878Z,99534.70
2022-08-15T06:53:10.180Z,99533.23
2022-08-15T06:55:55.629Z,99537.46
2022-08-15T06:59:05.026Z,99542.33
2022-08-15T07:02:40.408Z,99551.64
2022-08-15T07:05:31.333Z,99534.09
2022-08-15T07:08:29.080Z,99519.74
2022-08-15T07:11:28.709Z,99536.84
2022-08-15T07:14:30.065Z,99536.86
2022-08-15T07:16:02.256Z,99547.82
2022-08-15T07:18:53.574Z,99548.67
2022-08-15T07:21:53.238Z,99546.14
2022-08-15T07:25:51.265Z,99545.48
2022-08-15T07:28:36.664Z,99553.53
2022-08-15T07:37:07.988Z,99562.59
2022-08-15T07:40:00.793Z,99567.66
2022-08-15T07:42:59.644Z,99564.09
2022-08-15T07:44:20.995Z,99580.33
2022-08-15T07:45:40.984Z,99566.40
2022-08-15T07:48:35.593Z,99576.97
2022-08-15T07:51:46.045Z,99579.30
2022-08-15T07:56:38.898Z,99569.40
2022-08-15T08:01:43.591Z,99558.78
2022-08-15T08:04:37.407Z,99568.05
2022-08-15T08:09:03.784Z,99553.30
2022-08-15T08:10:35.374Z,99560.48
2022-08-15T08:13:24.008Z,99567.48
2022-08-15T08:19:16.367Z,99555.66
2022-08-15T08:22:14.005Z,99559.19
2022-08-15T08:23:37.746Z,99555.84
2022-08-15T08:26:30.589Z,99554.18
2022-08-15T08:28:10.640Z,99560.30
2022-08-15T08:31:14.093Z,99571.06
2022-08-15T08:34:00.671Z,99560.06
2022-08-15T08:35:34.878Z,99576.34
2022-08-15T08:39:03.322Z,99570.84
2022-08-15T08:41:55.617Z,99556.86
2022-08-15T08:44:39.414Z,99557.23
2022-08-15T08:45:55.128Z,99565.55
2022-08-15T08:48:38.061Z,99553.65
2022-08-15T08:50:33.811Z,99553.88
2022-08-15T08:52:06.110Z,99557.07
2022-08-15T08:55:01.092Z,99567.19
2022-08-15T09:00:55.731Z,99561.32
2022-08-15T09:03:37.566Z,99563.41
2022-08-15T09:06:10.321Z,99574.81
2022-08-15T09:07:26.093Z,99572.31
2022-08-15T09:08:48.036Z,99585.17
2022-08-15T09:10:01.458Z,99588.14
2022-08-15T09:13:02.889Z,99597.44
2022-08-15T09:15:47.139Z,99574.16
2022-08-15T09:19:57.470Z,99588.11
2022-08-15T09:22:25.181Z,99580.48
2022-08-15T09:25:11.681Z,99579.05
2022-08-15T09:28:08.493Z,99568.19
2022-08-15T09:30:49.934Z,99568.30
2022-08-15T09:32:38.067Z,99574.25
2022-08-15T09:34:11.556Z,99573.16
2022-08-15T09:42:35.532Z,99544.09
2022-08-15T09:47:01.178Z,99558.80
2022-08-15T09:48:19.344Z,99554.00
2022-08-15T09:51:26.475Z,99557.33
2022-08-15T09:52:54.260Z,99564.27
2022-08-15T09:55:46.356Z,99561.63
2022-08-15T09:58:41.680Z,99549.33
2022-08-15T10:02:49.897Z,99558.03
2022-08-15T10:05:26.993Z,99548.61
2022-08-15T10:07:10.844Z,99544.23
2022-08-15T10:09:38.370Z,99557.55
2022-08-15T10:10:57.855Z,99555.44
2022-08-15T10:12:12.377Z,99544.84
2022-08-15T10:15:04.116Z,99539.17
2022-08-15T10:16:43.370Z,99542.83
2022-08-15T10:17:59.104Z,99538.56
2022-08-15T10:19:13.371Z,99538.34
2022-08-15T10:20:33.360Z,99553.34
2022-08-15T10:21:46.688Z,99551.32
2022-08-15T10:23:05.304Z,99567.88
2022-08-15T10:27:10.406Z,99541.09
2022-08-15T10:28:38.324Z,99538.66
2022-08-15T10:29:40.931Z,99541.03
2022-08-15T10:31:06.824Z,99542.27
2022-08-15T10:32:38.191Z,99540.08
2022-08-15T10:33:58.418Z,99546.69
2022-08-15T10:35:06.730Z,99551.37
2022-08-15T10:37:58.912Z,99532.77
2022-08-15T10:39:33.535Z,99536.58
2022-08-15T10:42:48.605Z,99526.31
2022-08-15T10:44:35.017Z,99547.09
2022-08-15T10:46:22.180Z,99522.77
2022-08-15T10:49:24.266Z,99528.56
2022-08-15T10:52:48.257Z,99537.43
2022-08-15T10:55:56.797Z,99545.82
2022-08-15T10:58:34.254Z,99547.11
2022-08-15T11:01:23.032Z,99533.46
2022-08-15T11:04:50.266Z,99525.42
2022-08-15T11:06:56.344Z,99534.58
2022-08-15T11:08:02.931Z,99533.74
2022-08-15T11:10:41.653Z,99503.73
2022-08-15T11:13:15.449Z,99500.28
2022-08-15T11:14:29.782Z,99502.66
2022-08-15T11:16:00.043Z,99514.28
2022-08-15T11:18:41.057Z,99491.91
2022-08-15T11:24:35.096Z,99481.41
2022-08-15T11:27:23.738Z,99475.90
2022-08-15T11:28:55.206Z,99480.28
2022-08-15T11:29:52.892Z,99474.31
2022-08-15T11:31:06.328Z,99477.48
2022-08-15T11:36:29.617Z,99484.39
2022-08-15T11:37:44.201Z,99498.82
2022-08-15T11:40:27.480Z,99487.86
2022-08-15T11:41:50.802Z,99487.06
2022-08-15T11:43:02.668Z,99496.55
2022-08-15T11:44:13.887Z,99493.38
2022-08-15T11:46:46.532Z,99494.97
2022-08-15T11:52:41.456Z,99499.31
2022-08-15T11:55:51.765Z,99496.50
2022-08-15T11:58:35.917Z,99486.38
2022-08-15T12:04:41.686Z,99502.09
2022-08-15T12:06:50.967Z,99501.32
2022-08-15T12:11:17.556Z,99499.03
2022-08-15T12:17:02.320Z,99503.84
2022-08-15T12:20:26.673Z,99510.95
2022-08-15T12:22:53.117Z,99499.76
2022-08-15T12:25:18.811Z,99481.63
2022-08-15T12:26:40.357Z,99479.34
2022-08-15T12:27:42.960Z,99488.20
2022-08-15T12:28:55.991Z,99485.02
2022-08-15T12:31:37.052Z,99478.03
2022-08-15T12:32:47.145Z,99477.50
2022-08-15T12:34:27.792Z,99475.42
2022-08-15T12:35:42.119Z,99479.94
2022-08-15T12:37:54.271Z,99476.20
2022-08-15T12:40:54.164Z,99479.73
2022-08-15T12:42:55.034Z,99476.19
2022-08-15T12:47:08.007Z,99475.95
2022-08-15T12:48:35.662Z,99480.87
2022-08-15T12:49:47.203Z,99472.59
2022-08-15T12:50:51.872Z,99475.52
2022-08-15T12:53:22.550Z,99464.19
2022-08-15T12:54:38.316Z,99478.27
2022-08-15T12:55:47.732Z,99471.47
2022-08-15T12:57:09.737Z,99477.58
2022-08-15T12:58:13.918Z,99477.34
2022-08-15T12:59:21.075Z,99475.22
2022-08-15T13:00:36.466Z,99480.73
2022-08-15T13:03:23.590Z,99470.46
2022-08-15T13:04:41.030Z,99477.11
2022-08-15T13:07:02.729Z,99469.59
2022-08-15T13:09:32.069Z,99466.48
2022-08-15T13:13:26.309Z,99457.29
2022-08-15T13:15:52.482Z,99446.66
2022-08-15T13:20:06.845Z,99444.57
2022-08-15T13:23:09.710Z,99432.09
2022-08-15T13:25:47.503Z,99438.70
2022-08-15T13:28:15.651Z,99425.03
2022-08-15T13:29:26.192Z,99437.05
2022-08-15T13:30:41.598Z,99422.10
2022-08-15T13:31:52.581Z,99435.41
2022-08-15T13:34:19.626Z,99432.13
2022-08-15T13:36:55.168Z,99432.06
2022-08-15T13:40:50.385Z,99435.95
2022-08-15T13:42:05.124Z,99435.24
2022-08-15T13:43:12.528Z,99430.83
2022-08-15T13:45:56.216Z,99419.52
2022-08-15T13:48:17.725Z,99418.82
2022-08-15T13:52:46.192Z,99423.41
2022-08-15T13:56:30.647Z,99417.30
2022-08-15T13:57:37.236Z,99426.45
2022-08-15T13:58:57.763Z,99419.72
2022-08-15T14:00:57.343Z,99426.92
2022-08-15T14:02:37.252Z,99415.70
2022-08-15T14:05:06.478Z,99413.77
2022-08-15T14:07:53.456Z,99416.06
2022-08-15T14:11:32.762Z,99418.22
2022-08-15T14:12:43.321Z,99433.36
2022-08-15T14:13:53.078Z,99420.05
2022-08-15T14:15:06.964Z,99425.86
2022-08-15T14:16:41.599Z,99429.67
2022-08-15T14:17:28.929Z,99420.05
2022-08-15T14:18:51.701Z,99424.09
2022-08-15T14:20:02.275Z,99419.58
2022-08-15T14:22:27.663Z,99424.05
2022-08-15T14:23:50.485Z,99434.32
2022-08-15T14:27:07.593Z,99420.76
2022-08-15T14:27:38.412Z,99429.56
2022-08-15T14:43:17.772Z,99426.95
2022-08-15T14:47:19.232Z,99437.34
2022-08-15T14:48:46.817Z,99438.73
2022-08-15T14:52:03.342Z,99444.91
2022-08-15T14:58:00.047Z,99445.01
2022-08-15T15:00:31.424Z,99460.27
2022-08-15T15:04:21.588Z,99456.88
2022-08-15T15:06:46.078Z,99452.42
2022-08-15T15:09:26.134Z,99455.58
2022-08-15T15:10:37.600Z,99454.05
2022-08-15T15:13:14.469Z,99454.02
2022-08-15T15:14:25.811Z,99462.39
2022-08-15T15:15:42.320Z,99462.39
2022-08-15T15:16:52.331Z,99457.73
2022-08-15T15:19:20.897Z,99460.69
2022-08-15T15:21:53.489Z,99450.91
2022-08-15T15:23:05.261Z,99464.12
2022-08-15T15:24:16.108Z,99464.45
2022-08-15T15:25:27.332Z,99468.61
2022-08-15T15:26:55.046Z,99452.83
2022-08-15T15:27:59.372Z,99460.94
2022-08-15T15:29:01.071Z,99456.73
2022-08-15T15:31:29.543Z,99456.56
2022-08-15T15:32:39.856Z,99457.95
2022-08-15T15:33:51.574Z,99464.33
2022-08-15T15:36:35.660Z,99465.31
2022-08-15T15:37:44.941Z,99460.42
2022-08-15T15:39:00.976Z,99454.67
2022-08-15T15:40:20.742Z,99452.98
2022-08-15T15:41:25.701Z,99458.88
2022-08-15T15:42:35.789Z,99442.97
2022-08-15T15:43:46.086Z,99448.95
2022-08-15T15:44:55.108Z,99449.62
2022-08-15T15:47:24.815Z,99461.43
2022-08-15T15:48:45.337Z,99452.91
2022-08-15T15:49:48.282Z,99449.09
2022-08-15T15:51:00.409Z,99442.98
2022-08-15T15:52:21.667Z,99449.12
2022-08-15T15:53:34.298Z,99450.16
2022-08-15T15:54:52.788Z,99453.18
2022-08-15T15:58:02.722Z,99450.72
2022-08-15T15:59:01.524Z,99455.52
2022-08-15T16:02:43.498Z,99460.55
2022-08-15T16:02:44.221Z,99458.33
2022-08-15T16:05:09.558Z,99462.66
2022-08-15T16:07:02.439Z,99459.14
2022-08-15T16:08:51.320Z,99462.66
2022-08-15T16:11:42.242Z,99461.97
2022-08-15T16:12:59.374Z,99458.91
2022-08-15T16:22:01.182Z,99466.97
2022-08-15T16:29:18.396Z,99474.31
2022-08-15T16:34:59.068Z,99479.42
2022-08-15T16:37:56.602Z,99476.39
2022-08-15T16:40:59.855Z,99487.04
2022-08-15T16:41:53.307Z,99478.60
2022-08-15T16:44:40.349Z,99474.97
2022-08-15T16:47:35.330Z,99474.74
2022-08-15T16:50:23.434Z,99473.45
2022-08-15T16:53:26.415Z,99462.67
2022-08-15T16:56:33.312Z,99468.59
2022-08-15T16:57:59.695Z,99470.75
2022-08-15T17:00:43.120Z,99469.97
2022-08-15T17:03:20.518Z,99459.27
2022-08-15T17:05:06.715Z,99465.22
2022-08-15T17:06:38.138Z,99468.80
2022-08-15T17:09:58.714Z,99457.30
2022-08-15T17:12:54.575Z,99462.85
2022-08-15T17:16:00.597Z,99460.92
2022-08-15T17:18:52.421Z,99467.75
2022-08-15T17:23:14.062Z,99466.02
2022-08-15T17:25:00.115Z,99471.78
2022-08-15T17:27:37.746Z,99473.03
2022-08-15T17:30:53.919Z,99471.74
2022-08-15T17:34:41.476Z,99474.57
2022-08-15T17:35:38.319Z,99480.97
2022-08-15T17:38:06.465Z,99474.98
2022-08-15T17:39:37.947Z,99475.24
2022-08-15T17:42:16.573Z,99476.75
2022-08-15T17:45:35.410Z,99478.83
2022-08-15T17:47:53.298Z,99475.50
2022-08-15T17:58:01.147Z,99474.00
2022-08-15T18:01:57.055Z,99478.48
2022-08-15T18:04:30.996Z,99482.63
2022-08-15T18:06:04.353Z,99474.86
2022-08-15T18:06:49.833Z,99473.42
2022-08-15T18:10:27.313Z,99476.30
2022-08-15T18:13:58.014Z,99466.67
2022-08-15T18:16:25.812Z,99469.33
2022-08-15T18:19:14.872Z,99464.28
2022-08-15T18:20:44.847Z,99457.17
2022-08-15T18:22:01.609Z,99458.64
2022-08-15T18:24:51.804Z,99456.66
2022-08-15T18:27:24.214Z,99449.47
2022-08-15T18:31:31.797Z,99453.23
2022-08-15T18:34:29.726Z,99451.73
2022-08-15T18:36:59.258Z,99442.05
2022-08-15T18:38:18.598Z,99437.22
2022-08-15T18:41:50.400Z,99436.32
2022-08-15T18:44:28.174Z,99436.32
2022-08-15T18:48:35.330Z,99430.25
2022-08-15T18:49:42.058Z,99431.11
2022-08-15T18:50:59.253Z,99431.75
2022-08-15T18:53:33.472Z,99423.66
2022-08-15T18:56:26.096Z,99432.28
2022-08-15T19:04:49.567Z,99409.53
2022-08-15T19:07:22.112Z,99418.91
2022-08-15T19:08:38.530Z,99416.16
2022-08-15T19:09:42.208Z,99410.05
2022-08-15T19:10:57.472Z,99406.05
2022-08-15T19:12:15.332Z,99408.86
2022-08-15T19:14:53.428Z,99401.95
2022-08-15T19:17:32.510Z,99402.83
2022-08-15T19:18:55.482Z,99406.69
2022-08-15T19:20:26.146Z,99404.77
2022-08-15T19:21:31.535Z,99402.66
2022-08-15T19:24:05.000Z,99396.45
2022-08-15T19:31:01.886Z,99387.76
2022-08-15T19:37:28.142Z,99385.23
2022-08-15T19:40:25.686Z,99381.23
2022-08-15T19:42:07.196Z,99389.14
2022-08-15T19:43:36.655Z,99379.45
2022-08-15T19:46:35.601Z,99374.11
2022-08-15T19:49:15.121Z,99359.41
2022-08-15T19:52:51.703Z,99367.82
2022-08-15T19:57:51.412Z,99373.70
2022-08-15T20:00:25.201Z,99358.30
2022-08-15T20:03:18.211Z,99352.42
2022-08-15T20:04:53.271Z,99363.05
2022-08-15T20:07:38.468Z,99349.48
2022-08-15T20:10:50.466Z,99357.27
2022-08-15T20:12:30.981Z,99360.53
2022-08-15T20:15:24.801Z,99355.03
2022-08-15T20:18:43.329Z,99349.31
2022-08-15T20:20:28.405Z,99358.25
2022-08-15T20:21:37.880Z,99347.23
2022-08-15T20:30:20.335Z,99338.61
2022-08-15T20:31:58.800Z,99355.34
2022-08-15T20:34:23.406Z,99329.95
2022-08-15T20:35:39.024Z,99344.16
2022-08-15T20:36:49.655Z,99353.44
2022-08-15T20:39:26.876Z,99329.80
2022-08-15T20:42:05.323Z,99335.09
2022-08-15T20:43:33.524Z,99341.88
2022-08-15T20:46:31.772Z,99323.69
2022-08-15T20:53:15.978Z,99296.67
2022-08-15T20:54:34.449Z,99311.28
2022-08-15T20:55:42.468Z,99298.83
2022-08-15T20:58:11.132Z,99302.34
2022-08-15T21:01:18.431Z,99295.59
2022-08-15T21:04:06.034Z,99284.08
2022-08-15T21:08:12.119Z,99282.22
2022-08-15T21:11:05.558Z,99284.97
2022-08-15T21:12:37.430Z,99300.64
2022-08-15T21:13:58.658Z,99306.74
2022-08-15T21:16:03.577Z,99308.88
2022-08-15T21:16:55.798Z,99308.67
2022-08-15T21:18:14.441Z,99310.97
2022-08-15T21:21:17.318Z,99280.75
2022-08-15T21:22:43.596Z,99300.42
2022-08-15T21:25:42.501Z,99297.65
2022-08-15T21:26:55.552Z,99296.18
2022-08-15T21:29:28.441Z,99296.69
2022-08-15T21:32:32.113Z,99297.07
2022-08-15T21:33:44.686Z,99316.56
2022-08-15T21:35:14.863Z,99320.02
2022-08-15T21:37:53.633Z,99319.66
2022-08-15T21:40:46.389Z,99304.41
2022-08-15T21:43:51.651Z,99303.44
2022-08-15T21:46:49.627Z,99299.73
2022-08-15T21:49:43.729Z,99293.98
2022-08-15T21:52:29.974Z,99291.03
2022-08-15T21:55:09.613Z,99277.49
2022-08-15T21:56:26.010Z,99279.06
2022-08-15T21:57:41.787Z,99267.02
2022-08-15T21:59:15.634Z,99271.01
2022-08-15T22:00:33.036Z,99273.98
2022-08-15T22:03:35.772Z,99267.78
2022-08-15T22:06:06.527Z,99275.41
2022-08-15T22:08:51.448Z,99286.82
2022-08-15T22:11:18.572Z,99290.10
2022-08-15T22:12:33.828Z,99285.44
2022-08-15T22:13:47.571Z,99282.27
2022-08-15T22:15:01.773Z,99271.76
2022-08-15T22:17:31.757Z,99279.28
2022-08-15T22:19:57.937Z,99272.73
2022-08-15T22:21:11.057Z,99279.75
2022-08-15T22:23:38.624Z,99277.62
2022-08-15T22:26:36.670Z,99266.05
2022-08-15T22:27:24.931Z,99272.98
2022-08-15T22:28:59.523Z,99255.70
2022-08-15T22:31:06.987Z,99248.02
2022-08-15T22:32:31.114Z,99245.08
2022-08-15T22:34:52.534Z,99248.81
2022-08-15T22:37:34.565Z,99247.56
2022-08-15T22:41:27.901Z,99241.02
2022-08-15T22:44:00.086Z,99224.16
2022-08-15T22:46:38.681Z,99226.71
2022-08-15T22:49:17.644Z,99238.31
2022-08-15T22:50:30.083Z,99251.78
2022-08-15T22:51:46.190Z,99257.01
2022-08-15T22:52:58.568Z,99228.61
2022-08-15T22:54:12.664Z,99226.95
2022-08-15T22:56:54.985Z,99225.52
2022-08-15T22:58:10.300Z,99232.77
2022-08-15T22:59:23.997Z,99211.98
2022-08-15T23:00:46.696Z,99216.45
2022-08-15T23:03:24.849Z,99209.94
2022-08-15T23:04:43.094Z,99208.71
2022-08-15T23:07:26.489Z,99227.05
2022-08-15T23:08:39.709Z,99217.80
2022-08-15T23:11:23.949Z,99221.65
2022-08-15T23:12:38.097Z,99215.22
2022-08-15T23:15:34.329Z,99227.16
2022-08-15T23:16:47.201Z,99220.12
2022-08-15T23:19:32.015Z,99228.97
2022-08-15T23:20:46.331Z,99234.93
2022-08-15T23:23:38.158Z,99234.88
2022-08-15T23:26:32.177Z,99236.57
2022-08-15T23:28:56.496Z,99233.72
2022-08-15T23:30:31.163Z,99239.84
2022-08-15T23:32:48.235Z,99229.14
2022-08-15T23:34:01.930Z,99252.74
2022-08-15T23:35:15.398Z,99236.23
2022-08-15T23:37:54.164Z,99235.71
2022-08-15T23:40:27.811Z,99234.05
2022-08-15T23:43:18.997Z,99248.23
2022-08-15T23:44:32.005Z,99238.75
2022-08-15T23:45:45.568Z,99255.35
2022-08-15T23:46:57.164Z,99251.45
2022-08-15T23:49:23.162Z,99252.16
2022-08-15T23:51:48.327Z,99242.44
2022-08-15T23:54:32.678Z,99274.49
2022-08-15T23:55:44.252Z,99239.28
2022-08-15T23:58:13.581Z,99260.88
2022-08-15T23:59:28.317Z,99254.37
